createdAt,value
2022-08-27T00:00:34.672Z,22.09
2022-08-27T00:03:03.246Z,22.05
2022-08-27T00:05:30.848Z,22.10
2022-08-27T00:07:57.453Z,22.16
2022-08-27T00:10:26.948Z,22.26
2022-08-27T00:12:55.711Z,22.21
2022-08-27T00:15:23.105Z,22.22
2022-08-27T00:17:49.863Z,22.17
2022-08-27T00:20:18.467Z,22.21
2022-08-27T00:22:45.652Z,22.09
2022-08-27T00:25:13.054Z,22.01
2022-08-27T00:27:41.261Z,22.11
2022-08-27T00:30:13.313Z,22.12
2022-08-27T00:32:42.591Z,22.14
2022-08-27T00:35:10.530Z,21.98
2022-08-27T00:37:38.156Z,21.96
2022-08-27T00:40:08.377Z,21.95
2022-08-27T00:42:35.236Z,22.01
2022-08-27T00:45:02.327Z,22.00
2022-08-27T00:47:31.831Z,21.94
2022-08-27T00:50:06.417Z,22.03
2022-08-27T00:52:36.688Z,21.93
2022-08-27T00:55:08.972Z,22.03
2022-08-27T00:57:39.031Z,22.03
2022-08-27T01:00:10.540Z,22.06
2022-08-27T01:02:37.481Z,22.03
2022-08-27T01:05:11.312Z,21.99
2022-08-27T01:07:41.254Z,22.01
2022-08-27T01:10:13.149Z,22.06
2022-08-27T01:12:40.173Z,22.12
2022-08-27T01:15:11.006Z,22.14
2022-08-27T01:17:41.378Z,22.07
2022-08-27T01:20:14.524Z,22.09
2022-08-27T01:23:08.216Z,22.20
2022-08-27T01:25:35.273Z,22.22
2022-08-27T01:28:03.834Z,22.13
2022-08-27T01:30:31.582Z,22.06
2022-08-27T01:32:58.267Z,22.05
2022-08-27T01:35:25.439Z,22.04
2022-08-27T01:37:56.985Z,22.13
2022-08-27T01:40:25.311Z,22.03
2022-08-27T01:42:54.664Z,22.04
2022-08-27T01:45:26.440Z,21.90
2022-08-27T01:47:53.301Z,21.84
2022-08-27T01:50:24.050Z,21.97
2022-08-27T01:52:52.245Z,21.99
2022-08-27T01:55:22.992Z,22.05
2022-08-27T01:57:50.117Z,21.90
2022-08-27T02:00:20.593Z,21.92
2022-08-27T02:02:49.117Z,21.79
2022-08-27T02:05:17.022Z,21.91
2022-08-27T02:07:44.819Z,21.87
2022-08-27T02:10:15.640Z,21.89
2022-08-27T02:12:42.459Z,21.86
2022-08-27T02:15:10.051Z,21.86
2022-08-27T02:17:36.667Z,21.76
2022-08-27T02:20:05.475Z,21.74
2022-08-27T02:22:32.317Z,21.75
2022-08-27T02:24:59.270Z,21.83
2022-08-27T02:27:26.009Z,21.85
2022-08-27T02:29:53.249Z,21.95
2022-08-27T02:32:32.307Z,21.84
2022-08-27T02:34:59.455Z,21.70
2022-08-27T02:37:26.597Z,21.75
2022-08-27T02:39:53.447Z,21.72
2022-08-27T02:42:20.351Z,21.71
2022-08-27T02:44:47.712Z,21.68
2022-08-27T02:47:15.481Z,21.80
2022-08-27T02:49:43.171Z,21.89
2022-08-27T02:52:11.409Z,21.87
2022-08-27T02:54:38.246Z,21.67
2022-08-27T02:57:06.335Z,21.57
2022-08-27T02:59:33.015Z,21.59
2022-08-27T03:01:59.932Z,21.55
2022-08-27T03:04:29.048Z,21.48
2022-08-27T03:06:57.057Z,21.52
2022-08-27T03:09:23.845Z,21.58
2022-08-27T03:11:50.717Z,21.63
2022-08-27T03:14:17.458Z,21.62
2022-08-27T03:16:44.175Z,21.63
2022-08-27T03:19:10.999Z,21.62
2022-08-27T03:21:37.761Z,21.74
2022-08-27T03:24:11.712Z,21.75
2022-08-27T03:26:41.464Z,21.77
2022-08-27T03:29:08.578Z,21.80
2022-08-27T03:31:35.259Z,21.64
2022-08-27T03:34:04.624Z,21.63
2022-08-27T03:36:31.859Z,21.62
2022-08-27T03:38:58.783Z,21.64
2022-08-27T03:41:43.869Z,21.58
2022-08-27T03:44:18.180Z,21.45
2022-08-27T03:46:49.641Z,21.50
2022-08-27T03:49:20.347Z,21.51
2022-08-27T03:51:48.619Z,21.44
2022-08-27T03:54:15.833Z,21.37
2022-08-27T03:56:42.586Z,21.24
2022-08-27T03:59:09.213Z,21.32
2022-08-27T04:01:36.403Z,21.29
2022-08-27T04:04:03.497Z,21.34
2022-08-27T04:06:30.288Z,21.58
2022-08-27T04:08:57.045Z,21.45
2022-08-27T04:11:24.163Z,21.39
2022-08-27T04:13:51.450Z,21.43
2022-08-27T04:16:18.754Z,21.43
2022-08-27T04:18:45.405Z,21.34
2022-08-27T04:21:13.875Z,21.06
2022-08-27T04:23:42.416Z,21.19
2022-08-27T04:26:11.878Z,21.19
2022-08-27T04:28:40.547Z,21.20
2022-08-27T04:31:16.628Z,21.14
2022-08-27T04:33:50.725Z,21.09
2022-08-27T04:36:17.868Z,21.01
2022-08-27T04:38:44.674Z,20.99
2022-08-27T04:41:21.836Z,21.14
2022-08-27T04:43:56.856Z,21.04
2022-08-27T04:46:29.625Z,21.15
2022-08-27T04:48:58.928Z,21.12
2022-08-27T04:51:26.456Z,21.18
2022-08-27T04:53:54.333Z,21.20
2022-08-27T04:56:22.820Z,21.07
2022-08-27T04:58:50.836Z,21.20
2022-08-27T05:01:27.803Z,21.30
2022-08-27T05:03:55.029Z,21.17
2022-08-27T05:06:22.966Z,21.06
2022-08-27T05:08:51.026Z,20.94
2022-08-27T05:11:19.198Z,20.91
2022-08-27T05:13:46.344Z,20.89
2022-08-27T05:16:16.658Z,21.08
2022-08-27T05:18:48.529Z,20.76
2022-08-27T05:21:27.661Z,20.72
2022-08-27T05:23:56.345Z,20.91
2022-08-27T05:26:23.332Z,20.84
2022-08-27T05:28:50.869Z,20.99
2022-08-27T05:31:18.552Z,20.92
2022-08-27T05:33:47.262Z,20.89
2022-08-27T05:36:22.715Z,20.84
2022-08-27T05:38:50.796Z,20.78
2022-08-27T05:41:21.110Z,20.85
2022-08-27T05:43:50.440Z,20.87
2022-08-27T05:46:20.674Z,20.87
2022-08-27T05:48:48.822Z,21.03
2022-08-27T05:51:30.543Z,20.90
2022-08-27T05:54:00.018Z,20.78
2022-08-27T05:56:28.845Z,20.92
2022-08-27T05:59:14.691Z,20.74
2022-08-27T06:01:45.532Z,20.79
2022-08-27T06:04:17.488Z,20.69
2022-08-27T06:06:45.731Z,20.67
2022-08-27T06:09:15.584Z,20.66
2022-08-27T06:11:43.632Z,20.68
2022-08-27T06:14:10.764Z,20.59
2022-08-27T06:16:38.679Z,20.56
2022-08-27T06:19:06.532Z,20.55
2022-08-27T06:21:33.655Z,20.49
2022-08-27T06:24:01.072Z,20.51
2022-08-27T06:26:28.221Z,20.54
2022-08-27T06:28:55.446Z,20.50
2022-08-27T06:31:24.673Z,20.48
2022-08-27T06:33:53.735Z,20.41
2022-08-27T06:36:25.525Z,20.28
2022-08-27T06:38:54.656Z,20.14
2022-08-27T06:41:24.241Z,20.21
2022-08-27T06:43:52.199Z,20.15
2022-08-27T06:46:21.084Z,20.11
2022-08-27T06:48:49.713Z,20.11
2022-08-27T06:51:24.682Z,20.26
2022-08-27T06:53:52.746Z,19.99
2022-08-27T06:56:20.536Z,20.09
2022-08-27T06:58:48.962Z,20.21
2022-08-27T07:01:22.562Z,20.11
2022-08-27T07:03:49.640Z,20.12
2022-08-27T07:06:17.343Z,20.21
2022-08-27T07:08:53.164Z,20.31
2022-08-27T07:11:20.972Z,20.31
2022-08-27T07:13:49.155Z,20.36
2022-08-27T07:16:23.162Z,20.42
2022-08-27T07:18:52.407Z,20.38
2022-08-27T07:21:20.584Z,20.23
2022-08-27T07:23:48.838Z,20.44
2022-08-27T07:26:15.937Z,20.30
2022-08-27T07:28:44.311Z,20.44
2022-08-27T07:31:13.344Z,20.45
2022-08-27T07:33:46.114Z,20.42
2022-08-27T07:36:19.486Z,20.61
2022-08-27T07:38:46.237Z,20.57
2022-08-27T07:41:15.209Z,20.58
2022-08-27T07:44:00.594Z,20.64
2022-08-27T07:46:28.400Z,20.59
2022-08-27T07:48:57.671Z,20.69
2022-08-27T07:51:27.499Z,20.74
2022-08-27T07:53:54.504Z,20.71
2022-08-27T07:56:22.417Z,20.77
2022-08-27T07:58:49.755Z,20.71
2022-08-27T08:01:17.476Z,20.64
2022-08-27T08:03:44.690Z,20.45
2022-08-27T08:06:14.315Z,20.53
2022-08-27T08:08:42.160Z,20.64
2022-08-27T08:11:13.259Z,20.69
2022-08-27T08:13:40.145Z,20.66
2022-08-27T08:16:07.203Z,20.76
2022-08-27T08:18:36.197Z,20.74
2022-08-27T08:21:05.480Z,20.78
2022-08-27T08:23:33.890Z,20.86
2022-08-27T08:26:01.262Z,20.86
2022-08-27T08:28:29.397Z,20.73
2022-08-27T08:30:57.012Z,20.70
2022-08-27T08:33:23.893Z,20.55
2022-08-27T08:35:50.792Z,20.61
2022-08-27T08:38:18.761Z,20.56
2022-08-27T08:40:50.402Z,20.67
2022-08-27T08:43:40.737Z,20.58
2022-08-27T08:46:22.103Z,20.65
2022-08-27T08:48:50.623Z,20.60
2022-08-27T08:51:23.675Z,20.67
2022-08-27T08:53:57.709Z,20.62
2022-08-27T08:56:55.194Z,20.79
2022-08-27T08:59:37.332Z,20.90
2022-08-27T09:02:11.300Z,20.87
2022-08-27T09:04:43.724Z,20.92
2022-08-27T09:07:45.787Z,20.81
2022-08-27T09:11:03.918Z,20.93
2022-08-27T09:13:39.489Z,20.88
2022-08-27T09:16:06.808Z,20.89
2022-08-27T09:18:36.931Z,21.08
2022-08-27T09:21:45.553Z,21.28
2022-08-27T09:24:24.556Z,21.39
2022-08-27T09:26:51.577Z,21.50
2022-08-27T09:29:20.614Z,21.57
2022-08-27T09:32:13.605Z,21.73
2022-08-27T09:34:43.680Z,21.70
2022-08-27T09:37:23.479Z,21.61
2022-08-27T09:40:32.253Z,21.73
2022-08-27T09:43:20.331Z,21.82
2022-08-27T09:45:49.728Z,21.93
2022-08-27T09:48:34.826Z,21.93
2022-08-27T09:51:08.982Z,21.92
2022-08-27T09:53:52.316Z,21.85
2022-08-27T09:56:40.540Z,21.99
2022-08-27T09:59:13.084Z,21.91
2022-08-27T10:02:11.991Z,21.89
2022-08-27T10:04:50.967Z,21.82
2022-08-27T10:07:36.947Z,22.22
2022-08-27T10:10:11.306Z,22.24
2022-08-27T10:12:56.692Z,22.26
2022-08-27T10:15:24.949Z,22.26
2022-08-27T10:18:27.797Z,22.14
2022-08-27T10:21:15.613Z,22.26
2022-08-27T10:24:06.372Z,22.07
2022-08-27T10:26:52.819Z,21.96
2022-08-27T10:29:53.241Z,22.21
2022-08-27T10:33:26.984Z,22.45
2022-08-27T10:36:06.088Z,22.32
2022-08-27T10:38:44.804Z,22.43
2022-08-27T10:41:26.073Z,22.26
2022-08-27T10:44:32.138Z,22.20
2022-08-27T10:47:19.609Z,22.30
2022-08-27T10:49:52.922Z,22.41
2022-08-27T10:52:19.672Z,22.55
2022-08-27T10:55:10.597Z,22.63
2022-08-27T10:58:10.122Z,22.52
2022-08-27T11:01:09.316Z,22.43
2022-08-27T11:03:46.676Z,22.54
2022-08-27T11:06:28.264Z,22.70
2022-08-27T11:09:11.347Z,22.66
2022-08-27T11:12:13.786Z,22.73
2022-08-27T11:14:49.122Z,22.66
2022-08-27T11:17:19.337Z,22.73
2022-08-27T11:20:11.063Z,22.75
2022-08-27T11:22:42.516Z,22.59
2022-08-27T11:25:18.070Z,22.65
2022-08-27T11:27:45.713Z,22.51
2022-08-27T11:30:32.048Z,22.42
2022-08-27T11:33:07.287Z,22.36
2022-08-27T11:36:14.045Z,22.49
2022-08-27T11:39:19.122Z,22.51
2022-08-27T11:41:51.422Z,22.52
2022-08-27T11:44:22.539Z,22.66
2022-08-27T11:46:52.391Z,22.74
2022-08-27T11:49:27.908Z,22.85
2022-08-27T11:52:03.505Z,22.84
2022-08-27T11:54:46.048Z,22.77
2022-08-27T11:59:54.448Z,22.71
2022-08-27T12:02:27.579Z,22.76
2022-08-27T12:05:07.464Z,22.75
2022-08-27T12:07:37.407Z,22.63
2022-08-27T12:10:33.702Z,22.54
2022-08-27T12:13:25.496Z,22.64
2022-08-27T12:16:23.906Z,22.71
2022-08-27T12:19:04.242Z,22.68
2022-08-27T12:22:01.873Z,22.77
2022-08-27T12:24:55.640Z,22.93
2022-08-27T12:27:28.967Z,23.07
2022-08-27T12:30:02.785Z,23.09
2022-08-27T12:32:44.608Z,22.96
2022-08-27T12:35:15.031Z,22.93
2022-08-27T12:37:56.935Z,23.00
2022-08-27T12:40:29.921Z,22.83
2022-08-27T12:43:13.570Z,22.85
2022-08-27T12:45:52.697Z,22.99
2022-08-27T12:48:27.351Z,22.86
2022-08-27T12:53:52.052Z,22.80
2022-08-27T12:56:53.189Z,22.74
2022-08-27T12:59:59.215Z,22.86
2022-08-27T13:02:55.369Z,22.83
2022-08-27T13:05:24.040Z,22.96
2022-08-27T13:07:52.441Z,22.96
2022-08-27T13:10:28.785Z,23.13
2022-08-27T13:13:09.497Z,23.10
2022-08-27T13:15:36.510Z,23.07
2022-08-27T13:18:04.782Z,23.19
2022-08-27T13:20:32.673Z,23.20
2022-08-27T13:22:59.602Z,22.98
2022-08-27T13:25:33.330Z,23.07
2022-08-27T13:28:15.557Z,23.09
2022-08-27T13:30:45.404Z,23.07
2022-08-27T13:33:17.523Z,22.85
2022-08-27T13:35:45.201Z,22.69
2022-08-27T13:38:12.908Z,22.97
2022-08-27T13:40:53.796Z,23.16
2022-08-27T13:43:22.228Z,23.24
2022-08-27T13:45:51.587Z,23.45
2022-08-27T13:48:19.271Z,23.38
2022-08-27T13:50:52.137Z,23.33
2022-08-27T13:53:41.388Z,23.46
2022-08-27T13:56:08.582Z,23.31
2022-08-27T13:58:36.676Z,23.42
2022-08-27T14:01:26.214Z,23.31
2022-08-27T14:03:57.972Z,23.40
2022-08-27T14:06:41.542Z,22.98
2022-08-27T14:09:25.593Z,23.06
2022-08-27T14:12:04.648Z,22.86
2022-08-27T14:14:36.820Z,22.85
2022-08-27T14:19:36.268Z,22.82
2022-08-27T14:22:04.356Z,22.82
2022-08-27T14:24:30.973Z,22.60
2022-08-27T14:27:05.826Z,22.78
2022-08-27T14:29:32.440Z,22.74
2022-08-27T14:31:59.142Z,22.69
2022-08-27T14:34:29.508Z,22.71
2022-08-27T14:36:56.144Z,22.78
2022-08-27T14:42:10.794Z,22.60
2022-08-27T14:44:37.952Z,22.82
2022-08-27T14:47:09.402Z,22.62
2022-08-27T14:47:26.398Z,22.72
2022-08-27T14:49:41.486Z,22.39
2022-08-27T14:52:12.238Z,22.24
2022-08-27T14:54:39.542Z,22.38
2022-08-27T14:57:07.232Z,22.30
2022-08-27T14:59:34.768Z,22.29
2022-08-27T15:02:03.210Z,22.26
2022-08-27T15:04:30.953Z,22.44
2022-08-27T15:06:59.870Z,22.36
2022-08-27T15:09:28.402Z,22.51
2022-08-27T15:11:57.191Z,22.52
2022-08-27T15:14:36.273Z,22.46
2022-08-27T15:17:03.361Z,22.24
2022-08-27T15:19:49.000Z,22.24
2022-08-27T15:22:22.413Z,22.02
2022-08-27T15:24:54.415Z,22.12
2022-08-27T15:27:22.186Z,22.06
2022-08-27T15:29:49.348Z,21.98
2022-08-27T15:32:27.859Z,21.81
2022-08-27T15:34:57.034Z,21.86
2022-08-27T15:37:24.784Z,21.89
2022-08-27T15:39:51.533Z,22.04
2022-08-27T15:42:18.728Z,21.97
2022-08-27T15:44:50.142Z,21.75
2022-08-27T15:47:19.588Z,21.66
2022-08-27T15:49:46.671Z,21.70
2022-08-27T15:52:17.208Z,21.71
2022-08-27T15:54:45.022Z,21.66
2022-08-27T15:57:12.146Z,21.58
2022-08-27T15:59:39.672Z,21.54
2022-08-27T16:02:07.949Z,21.60
2022-08-27T16:04:34.981Z,21.76
2022-08-27T16:07:01.655Z,21.76
2022-08-27T16:09:28.377Z,21.74
2022-08-27T16:11:55.473Z,21.66
2022-08-27T16:14:22.314Z,21.72
2022-08-27T16:16:50.398Z,21.77
2022-08-27T16:19:18.227Z,21.57
2022-08-27T16:21:46.180Z,21.79
2022-08-27T16:24:14.089Z,21.60
2022-08-27T16:26:40.762Z,21.75
2022-08-27T16:29:07.523Z,21.69
2022-08-27T16:31:35.460Z,21.88
2022-08-27T16:34:03.244Z,21.75
2022-08-27T16:36:30.797Z,21.80
2022-08-27T16:38:57.512Z,21.59
2022-08-27T16:41:24.552Z,21.74
2022-08-27T16:43:51.245Z,21.67
2022-08-27T16:46:18.177Z,21.58
2022-08-27T16:49:03.528Z,21.63
2022-08-27T16:51:34.499Z,21.45
2022-08-27T16:54:06.468Z,21.43
2022-08-27T16:56:37.130Z,21.47
2022-08-27T16:59:04.919Z,21.53
2022-08-27T17:01:32.231Z,21.55
2022-08-27T17:04:13.834Z,21.39
2022-08-27T17:06:45.546Z,21.27
2022-08-27T17:09:12.655Z,21.40
2022-08-27T17:11:42.945Z,21.43
2022-08-27T17:14:13.182Z,21.42
2022-08-27T17:16:41.840Z,21.49
2022-08-27T17:19:09.874Z,21.35
2022-08-27T17:21:38.520Z,21.35
2022-08-27T17:24:12.313Z,21.41
2022-08-27T17:26:40.315Z,21.42
2022-08-27T17:29:07.103Z,21.49
2022-08-27T17:31:37.306Z,21.56
2022-08-27T17:34:06.725Z,21.42
2022-08-27T17:36:35.012Z,21.37
2022-08-27T17:39:03.183Z,21.27
2022-08-27T17:41:39.912Z,21.33
2022-08-27T17:44:33.497Z,21.26
2022-08-27T17:47:03.425Z,21.52
2022-08-27T17:49:34.510Z,21.56
2022-08-27T17:52:04.483Z,21.25
2022-08-27T17:54:56.836Z,21.13
2022-08-27T17:57:27.658Z,21.11
2022-08-27T17:59:55.493Z,21.09
2022-08-27T18:02:25.494Z,20.99
2022-08-27T18:04:54.013Z,20.94
2022-08-27T18:07:21.498Z,20.96
2022-08-27T18:09:49.123Z,20.99
2022-08-27T18:12:18.742Z,21.05
2022-08-27T18:14:46.442Z,20.92
2022-08-27T18:17:13.975Z,20.88
2022-08-27T18:19:45.493Z,20.81
2022-08-27T18:22:12.733Z,20.88
2022-08-27T18:24:40.601Z,20.95
2022-08-27T18:27:07.273Z,21.02
2022-08-27T18:29:33.849Z,20.95
2022-08-27T18:32:00.667Z,20.88
2022-08-27T18:34:27.870Z,20.93
2022-08-27T18:36:54.554Z,21.00
2022-08-27T18:39:21.147Z,20.97
2022-08-27T18:41:53.445Z,21.07
2022-08-27T18:44:20.085Z,20.93
2022-08-27T18:46:46.715Z,20.67
2022-08-27T18:49:14.671Z,20.72
2022-08-27T18:51:43.879Z,20.54
2022-08-27T18:54:11.442Z,20.79
2022-08-27T18:56:38.533Z,20.71
2022-08-27T18:59:07.011Z,20.76
2022-08-27T19:01:33.933Z,20.63
2022-08-27T19:04:01.252Z,20.73
2022-08-27T19:06:28.369Z,20.66
2022-08-27T19:08:56.521Z,20.66
2022-08-27T19:11:23.508Z,20.76
2022-08-27T19:13:50.953Z,20.77
2022-08-27T19:16:23.706Z,20.80
2022-08-27T19:18:51.080Z,20.77
2022-08-27T19:21:18.014Z,20.75
2022-08-27T19:23:45.419Z,20.72
2022-08-27T19:26:18.120Z,20.73
2022-08-27T19:28:45.361Z,20.68
2022-08-27T19:31:13.379Z,20.64
2022-08-27T19:33:40.607Z,20.53
2022-08-27T19:36:11.454Z,20.55
2022-08-27T19:38:42.072Z,20.49
2022-08-27T19:41:09.063Z,20.24
2022-08-27T19:43:35.713Z,20.27
2022-08-27T19:46:03.651Z,20.17
2022-08-27T19:48:31.401Z,20.20
2022-08-27T19:50:59.216Z,20.29
2022-08-27T19:53:26.201Z,20.33
2022-08-27T19:55:53.017Z,20.35
2022-08-27T19:58:20.521Z,20.40
2022-08-27T20:00:47.345Z,20.33
2022-08-27T20:03:14.569Z,20.46
2022-08-27T20:05:41.561Z,20.21
2022-08-27T20:08:08.978Z,20.24
2022-08-27T20:10:36.581Z,20.27
2022-08-27T20:13:04.678Z,20.32
2022-08-27T20:15:32.024Z,20.23
2022-08-27T20:18:03.077Z,20.39
2022-08-27T20:20:31.462Z,20.17
2022-08-27T20:23:01.017Z,20.10
2022-08-27T20:25:27.765Z,20.22
2022-08-27T20:27:54.884Z,20.13
2022-08-27T20:30:24.360Z,20.10
2022-08-27T20:32:51.043Z,20.20
2022-08-27T20:35:19.026Z,20.11
2022-08-27T20:37:46.461Z,20.04
2022-08-27T20:40:26.501Z,20.03
2022-08-27T20:42:53.536Z,20.02
2022-08-27T20:45:21.241Z,19.99
2022-08-27T20:47:49.417Z,20.08
2022-08-27T20:50:17.785Z,20.12
2022-08-27T20:52:45.704Z,20.23
2022-08-27T20:55:14.376Z,20.35
2022-08-27T20:58:04.409Z,20.16
2022-08-27T21:00:34.730Z,20.08
2022-08-27T21:03:01.789Z,20.15
2022-08-27T21:05:32.518Z,20.27
2022-08-27T21:07:59.456Z,20.19
2022-08-27T21:10:26.816Z,20.28
2022-08-27T21:12:54.033Z,20.11
2022-08-27T21:15:21.265Z,20.03
2022-08-27T21:17:47.898Z,20.06
2022-08-27T21:20:14.804Z,19.95
2022-08-27T21:22:43.941Z,20.08
2022-08-27T21:25:13.219Z,20.14
2022-08-27T21:27:41.242Z,20.15
2022-08-27T21:30:11.368Z,20.25
2022-08-27T21:32:38.842Z,20.21
2022-08-27T21:35:06.464Z,20.20
2022-08-27T21:37:33.391Z,20.39
2022-08-27T21:40:00.619Z,20.41
2022-08-27T21:42:27.475Z,20.30
2022-08-27T21:44:54.087Z,20.28
2022-08-27T21:47:20.722Z,20.27
2022-08-27T21:49:47.557Z,20.22
2022-08-27T21:52:14.306Z,20.25
2022-08-27T21:54:42.900Z,20.23
2022-08-27T21:57:14.007Z,20.26
2022-08-27T21:59:46.443Z,20.30
2022-08-27T22:02:38.274Z,20.29
2022-08-27T22:05:02.385Z,20.13
2022-08-27T22:07:29.440Z,19.95
2022-08-27T22:09:56.045Z,19.99
2022-08-27T22:12:22.781Z,20.05
2022-08-27T22:14:49.938Z,20.03
2022-08-27T22:17:16.902Z,20.09
2022-08-27T22:19:43.832Z,20.06
2022-08-27T22:22:10.537Z,20.09
2022-08-27T22:24:38.019Z,19.98
2022-08-27T22:27:05.092Z,20.14
2022-08-27T22:29:31.783Z,20.20
2022-08-27T22:31:58.684Z,20.05
2022-08-27T22:34:25.425Z,20.08
2022-08-27T22:36:52.160Z,19.97
2022-08-27T22:39:19.122Z,20.01
2022-08-27T22:41:48.762Z,19.94
2022-08-27T22:44:15.875Z,19.83
2022-08-27T22:46:42.977Z,19.88
2022-08-27T22:49:10.050Z,19.97
2022-08-27T22:51:37.041Z,19.88
2022-08-27T22:54:03.904Z,19.77
2022-08-27T22:56:30.731Z,19.65
2022-08-27T22:58:57.564Z,19.78
2022-08-27T23:01:25.055Z,19.71
2022-08-27T23:03:53.443Z,19.71
2022-08-27T23:06:20.206Z,19.60
2022-08-27T23:08:47.010Z,19.59
2022-08-27T23:11:16.027Z,19.60
2022-08-27T23:13:42.712Z,19.56
2022-08-27T23:16:09.850Z,19.47
2022-08-27T23:18:38.764Z,19.52
2022-08-27T23:21:06.169Z,19.53
2022-08-27T23:23:34.329Z,19.49
2022-08-27T23:26:20.056Z,19.45
2022-08-27T23:28:47.515Z,19.28
2022-08-27T23:31:15.339Z,19.26
2022-08-27T23:33:42.489Z,19.32
2022-08-27T23:36:10.187Z,19.12
2022-08-27T23:38:37.614Z,19.13
2022-08-27T23:41:06.287Z,19.13
2022-08-27T23:43:32.881Z,19.17
2022-08-27T23:45:59.715Z,19.09
2022-08-27T23:48:26.925Z,19.10
2022-08-27T23:50:53.738Z,19.11
2022-08-27T23:53:20.465Z,19.06
2022-08-27T23:55:47.465Z,19.11
2022-08-27T23:58:14.161Z,19.11
